Aviation Digital Data Service (ADDS)

Output produced by METARs form (2307 UTC 15 February 2019)
found at http://www.aviationweather.gov/metar/data/
 
METAR text: LTCI 152250Z 02003KT 9999 SCT030 BKN080 M03/M05 Q1011 NOSIG
Conditions at: LTCI (VAN , TR) observed 2250 UTC 15 February 2019
Temperature: -3.0°C (27°F)
Dewpoint: -5.0°C (23°F) [RH = 86%]
Pressure (altimeter): 29.85 inches Hg (1011.0 mb)
Winds: from the NNE (20 degrees) at 3 MPH (3 knots; 1.5 m/s)
Visibility: 6 or more miles (10+ km)
Ceiling: 8000 feet AGL
Clouds: scattered clouds at 3000 feet AGL
broken clouds at 8000 feet AGL
Weather: no significant weather observed at this time

METAR text: LTCI 152150Z 10003KT 9999 SCT035 BKN100 M02/M04 Q1011 NOSIG
Conditions at: LTCI (VAN , TR) observed 2150 UTC 15 February 2019
Temperature: -2.0°C (28°F)
Dewpoint: -4.0°C (25°F) [RH = 86%]
Pressure (altimeter): 29.85 inches Hg (1011.0 mb)
Winds: from the E (100 degrees) at 3 MPH (3 knots; 1.5 m/s)
Visibility: 6 or more miles (10+ km)
Ceiling: 10000 feet AGL
Clouds: scattered clouds at 3500 feet AGL
broken clouds at 10000 feet AGL
Weather: no significant weather observed at this time

METAR text: LTCI 152050Z 10003KT 7000 SCT030 BKN070 M02/M05 Q1011 NOSIG
Conditions at: LTCI (VAN , TR) observed 2050 UTC 15 February 2019
Temperature: -2.0°C (28°F)
Dewpoint: -5.0°C (23°F) [RH = 80%]
Pressure (altimeter): 29.85 inches Hg (1011.0 mb)
Winds: from the E (100 degrees) at 3 MPH (3 knots; 1.5 m/s)
Visibility: 4 miles ( 7 km)
Ceiling: 7000 feet AGL
Clouds: scattered clouds at 3000 feet AGL
broken clouds at 7000 feet AGL
Weather: no significant weather observed at this time

METAR text: LTCI 151950Z 00000KT 6000 SCT030 BKN070 M02/M05 Q1011 NOSIG
Conditions at: LTCI (VAN , TR) observed 1950 UTC 15 February 2019
Temperature: -2.0°C (28°F)
Dewpoint: -5.0°C (23°F) [RH = 80%]
Pressure (altimeter): 29.85 inches Hg (1011.0 mb)
Winds: calm
Visibility: 4 miles ( 6 km)
Ceiling: 7000 feet AGL
Clouds: scattered clouds at 3000 feet AGL
broken clouds at 7000 feet AGL
Weather: no significant weather observed at this time

METAR text: LTCI 151850Z VRB02KT 6000 SCT030 BKN070 M02/M05 Q1011 NOSIG
Conditions at: LTCI (VAN , TR) observed 1850 UTC 15 February 2019
Temperature: -2.0°C (28°F)
Dewpoint: -5.0°C (23°F) [RH = 80%]
Pressure (altimeter): 29.85 inches Hg (1011.0 mb)
Winds: variable direction winds at 2 MPH (2 knots; 1.0 m/s)
Visibility: 4 miles ( 6 km)
Ceiling: 7000 feet AGL
Clouds: scattered clouds at 3000 feet AGL
broken clouds at 7000 feet AGL
Weather: no significant weather observed at this time

METAR text: LTCI 151750Z VRB02KT 6000 SCT030 BKN070 M00/M04 Q1011 NOSIG
Conditions at: LTCI (VAN , TR) observed 1750 UTC 15 February 2019
Temperature: 0.0°C (32°F)
Dewpoint: -4.0°C (25°F) [RH = 74%]
Pressure (altimeter): 29.85 inches Hg (1011.0 mb)
Winds: variable direction winds at 2 MPH (2 knots; 1.0 m/s)
Visibility: 4 miles ( 6 km)
Ceiling: 7000 feet AGL
Clouds: scattered clouds at 3000 feet AGL
broken clouds at 7000 feet AGL
Weather: no significant weather observed at this time

METAR text: LTCI 151650Z 08004KT 6000 SCT030 BKN070 M00/M05 Q1011 NOSIG
Conditions at: LTCI (VAN , TR) observed 1650 UTC 15 February 2019
Temperature: 0.0°C (32°F)
Dewpoint: -5.0°C (23°F) [RH = 69%]
Pressure (altimeter): 29.85 inches Hg (1011.0 mb)
Winds: from the E (80 degrees) at 5 MPH (4 knots; 2.1 m/s)
Visibility: 4 miles ( 6 km)
Ceiling: 7000 feet AGL
Clouds: scattered clouds at 3000 feet AGL
broken clouds at 7000 feet AGL
Weather: no significant weather observed at this time

METAR text: LTCI 151550Z 17004KT 140V220 9999 SCT035 BKN070 01/M05 Q1012 NOSIG
Conditions at: LTCI (VAN , TR) observed 1550 UTC 15 February 2019
Temperature: 1.0°C (34°F)
Dewpoint: -5.0°C (23°F) [RH = 64%]
Pressure (altimeter): 29.88 inches Hg (1012.0 mb)
Winds: from the S (170 degrees) at 5 MPH (4 knots; 2.1 m/s)
Visibility: 6 or more miles (10+ km)
Ceiling: 7000 feet AGL
Clouds: scattered clouds at 3500 feet AGL
broken clouds at 7000 feet AGL
Weather: no significant weather observed at this time

METAR text: LTCI 151450Z 14003KT 100V180 9999 SCT035 BKN070 02/M05 Q1011 NOSIG
Conditions at: LTCI (VAN , TR) observed 1450 UTC 15 February 2019
Temperature: 2.0°C (36°F)
Dewpoint: -5.0°C (23°F) [RH = 60%]
Pressure (altimeter): 29.85 inches Hg (1011.0 mb)
Winds: from the SE (140 degrees) at 3 MPH (3 knots; 1.5 m/s)
Visibility: 6 or more miles (10+ km)
Ceiling: 7000 feet AGL
Clouds: scattered clouds at 3500 feet AGL
broken clouds at 7000 feet AGL
Weather: no significant weather observed at this time

METAR text: LTCI 151350Z 19007KT 160V220 9999 SCT035 BKN070 04/M06 Q1011 NOSIG
Conditions at: LTCI (VAN , TR) observed 1350 UTC 15 February 2019
Temperature: 4.0°C (39°F)
Dewpoint: -6.0°C (21°F) [RH = 48%]
Pressure (altimeter): 29.85 inches Hg (1011.0 mb)
Winds: from the S (190 degrees) at 8 MPH (7 knots; 3.6 m/s)
Visibility: 6 or more miles (10+ km)
Ceiling: 7000 feet AGL
Clouds: scattered clouds at 3500 feet AGL
broken clouds at 7000 feet AGL
Weather: no significant weather observed at this time

METAR text: LTCI 151250Z 16005KT 130V200 9999 SCT035 BKN080 05/M06 Q1011 NOSIG
Conditions at: LTCI (VAN , TR) observed 1250 UTC 15 February 2019
Temperature: 5.0°C (41°F)
Dewpoint: -6.0°C (21°F) [RH = 45%]
Pressure (altimeter): 29.85 inches Hg (1011.0 mb)
Winds: from the SSE (160 degrees) at 6 MPH (5 knots; 2.6 m/s)
Visibility: 6 or more miles (10+ km)
Ceiling: 8000 feet AGL
Clouds: scattered clouds at 3500 feet AGL
broken clouds at 8000 feet AGL
Weather: no significant weather observed at this time

METAR text: LTCI 151150Z 18007KT 9999 SCT035 BKN080 05/M07 Q1011 NOSIG
Conditions at: LTCI (VAN , TR) observed 1150 UTC 15 February 2019
Temperature: 5.0°C (41°F)
Dewpoint: -7.0°C (19°F) [RH = 41%]
Pressure (altimeter): 29.85 inches Hg (1011.0 mb)
Winds: from the S (180 degrees) at 8 MPH (7 knots; 3.6 m/s)
Visibility: 6 or more miles (10+ km)
Ceiling: 8000 feet AGL
Clouds: scattered clouds at 3500 feet AGL
broken clouds at 8000 feet AGL
Weather: no significant weather observed at this time

METAR text: LTCI 151050Z 18010KT 140V200 9999 SCT035 BKN080 06/M06 Q1011 NOSIG
Conditions at: LTCI (VAN , TR) observed 1050 UTC 15 February 2019
Temperature: 6.0°C (43°F)
Dewpoint: -6.0°C (21°F) [RH = 42%]
Pressure (altimeter): 29.85 inches Hg (1011.0 mb)
Winds: from the S (180 degrees) at 12 MPH (10 knots; 5.1 m/s)
Visibility: 6 or more miles (10+ km)
Ceiling: 8000 feet AGL
Clouds: scattered clouds at 3500 feet AGL
broken clouds at 8000 feet AGL
Weather: no significant weather observed at this time

METAR text: LTCI 150950Z 17011KT 140V200 9999 SCT035 07/M05 Q1011 NOSIG
Conditions at: LTCI (VAN , TR) observed 0950 UTC 15 February 2019
Temperature: 7.0°C (45°F)
Dewpoint: -5.0°C (23°F) [RH = 42%]
Pressure (altimeter): 29.85 inches Hg (1011.0 mb)
Winds: from the S (170 degrees) at 13 MPH (11 knots; 5.7 m/s)
Visibility: 6 or more miles (10+ km)
Ceiling: at least 12,000 feet AGL
Clouds: scattered clouds at 3500 feet AGL
Weather: no significant weather observed at this time

METAR text: LTCI 150850Z 16010KT 9999 SCT035 07/M03 Q1012 NOSIG
Conditions at: LTCI (VAN , TR) observed 0850 UTC 15 February 2019
Temperature: 7.0°C (45°F)
Dewpoint: -3.0°C (27°F) [RH = 49%]
Pressure (altimeter): 29.88 inches Hg (1012.0 mb)
Winds: from the SSE (160 degrees) at 12 MPH (10 knots; 5.1 m/s)
Visibility: 6 or more miles (10+ km)
Ceiling: at least 12,000 feet AGL
Clouds: scattered clouds at 3500 feet AGL
Weather: no significant weather observed at this time

METAR text: LTCI 150750Z 15015KT 9999 SCT035 04/M04 Q1012 NOSIG
Conditions at: LTCI (VAN , TR) observed 0750 UTC 15 February 2019
Temperature: 4.0°C (39°F)
Dewpoint: -4.0°C (25°F) [RH = 56%]
Pressure (altimeter): 29.88 inches Hg (1012.0 mb)
Winds: from the SSE (150 degrees) at 17 MPH (15 knots; 7.7 m/s)
Visibility: 6 or more miles (10+ km)
Ceiling: at least 12,000 feet AGL
Clouds: scattered clouds at 3500 feet AGL
Weather: no significant weather observed at this time

METAR text: LTCI 150650Z 16012KT 9999 SCT035 03/M04 Q1012 NOSIG
Conditions at: LTCI (VAN , TR) observed 0650 UTC 15 February 2019
Temperature: 3.0°C (37°F)
Dewpoint: -4.0°C (25°F) [RH = 60%]
Pressure (altimeter): 29.88 inches Hg (1012.0 mb)
Winds: from the SSE (160 degrees) at 14 MPH (12 knots; 6.2 m/s)
Visibility: 6 or more miles (10+ km)
Ceiling: at least 12,000 feet AGL
Clouds: scattered clouds at 3500 feet AGL
Weather: no significant weather observed at this time

METAR text: LTCI 150550Z 16012KT 9999 SCT035 BKN070 02/M05 Q1012 NOSIG
Conditions at: LTCI (VAN , TR) observed 0550 UTC 15 February 2019
Temperature: 2.0°C (36°F)
Dewpoint: -5.0°C (23°F) [RH = 60%]
Pressure (altimeter): 29.88 inches Hg (1012.0 mb)
Winds: from the SSE (160 degrees) at 14 MPH (12 knots; 6.2 m/s)
Visibility: 6 or more miles (10+ km)
Ceiling: 7000 feet AGL
Clouds: scattered clouds at 3500 feet AGL
broken clouds at 7000 feet AGL
Weather: no significant weather observed at this time

METAR text: LTCI 150450Z 15010KT 9999 SCT030 BKN070 01/M06 Q1011 TEMPO TL0600 3500 BR
Conditions at: LTCI (VAN , TR) observed 0450 UTC 15 February 2019
Temperature: 1.0°C (34°F)
Dewpoint: -6.0°C (21°F) [RH = 59%]
Pressure (altimeter): 29.85 inches Hg (1011.0 mb)
Winds: from the SSE (150 degrees) at 12 MPH (10 knots; 5.1 m/s)
Visibility: 6 or more miles (10+ km)
Ceiling: 7000 feet AGL
Clouds: scattered clouds at 3000 feet AGL
broken clouds at 7000 feet AGL
Weather: no significant weather observed at this time

METAR text: LTCI 150350Z 13009KT 9999 SCT030 BKN070 00/M03 Q1011 TEMPO 3500 BR
Conditions at: LTCI (VAN , TR) observed 0350 UTC 15 February 2019
Temperature: 0.0°C (32°F)
Dewpoint: -3.0°C (27°F) [RH = 80%]
Pressure (altimeter): 29.85 inches Hg (1011.0 mb)
Winds: from the SE (130 degrees) at 10 MPH (9 knots; 4.6 m/s)
Visibility: 6 or more miles (10+ km)
Ceiling: 7000 feet AGL
Clouds: scattered clouds at 3000 feet AGL
broken clouds at 7000 feet AGL
Weather: no significant weather observed at this time

METAR text: LTCI 150250Z 12006KT 080V160 9999 SCT030 BKN070 M04/M05 Q1011 TEMPO 3500 BR
Conditions at: LTCI (VAN , TR) observed 0250 UTC 15 February 2019
Temperature: -4.0°C (25°F)
Dewpoint: -5.0°C (23°F) [RH = 93%]
Pressure (altimeter): 29.85 inches Hg (1011.0 mb)
Winds: from the ESE (120 degrees) at 7 MPH (6 knots; 3.1 m/s)
Visibility: 6 or more miles (10+ km)
Ceiling: 7000 feet AGL
Clouds: scattered clouds at 3000 feet AGL
broken clouds at 7000 feet AGL
Weather: no significant weather observed at this time

METAR text: LTCI 150150Z 34004KT 300V090 8000 SCT030 BKN070 M03/M04 Q1011 TEMPO 3100 BR
Conditions at: LTCI (VAN , TR) observed 0150 UTC 15 February 2019
Temperature: -3.0°C (27°F)
Dewpoint: -4.0°C (25°F) [RH = 93%]
Pressure (altimeter): 29.85 inches Hg (1011.0 mb)
Winds: from the NNW (340 degrees) at 5 MPH (4 knots; 2.1 m/s)
Visibility: 5 miles ( 8 km)
Ceiling: 7000 feet AGL
Clouds: scattered clouds at 3000 feet AGL
broken clouds at 7000 feet AGL
Weather: no significant weather observed at this time

METAR text: LTCI 150050Z VRB04KT 7000 FEW012 SCT030 BKN070 M02/M03 Q1011 TEMPO 3100 BR
Conditions at: LTCI (VAN , TR) observed 0050 UTC 15 February 2019
Temperature: -2.0°C (28°F)
Dewpoint: -3.0°C (27°F) [RH = 93%]
Pressure (altimeter): 29.85 inches Hg (1011.0 mb)
Winds: variable direction winds at 5 MPH (4 knots; 2.1 m/s)
Visibility: 4 miles ( 7 km)
Ceiling: 7000 feet AGL
Clouds: few clouds at 1200 feet AGL
scattered clouds at 3000 feet AGL
broken clouds at 7000 feet AGL
Weather: no significant weather observed at this time

METAR text: LTCI 142350Z VRB02KT 6000 FEW012 SCT030 BKN070 M02/M02 Q1011 TEMPO 3100 BR
Conditions at: LTCI (VAN , TR) observed 2350 UTC 14 February 2019
Temperature: -2.0°C (28°F)
Dewpoint: -2.0°C (28°F) [RH = 100%]
Pressure (altimeter): 29.85 inches Hg (1011.0 mb)
Winds: variable direction winds at 2 MPH (2 knots; 1.0 m/s)
Visibility: 4 miles ( 6 km)
Ceiling: 7000 feet AGL
Clouds: few clouds at 1200 feet AGL
scattered clouds at 3000 feet AGL
broken clouds at 7000 feet AGL
Weather: no significant weather observed at this time

METAR text: LTCI 142250Z 22004KT 6000 FEW012 SCT030 BKN070 M04/M05 Q1011 TEMPO 3500 BR
Conditions at: LTCI (VAN , TR) observed 2250 UTC 14 February 2019
Temperature: -4.0°C (25°F)
Dewpoint: -5.0°C (23°F) [RH = 93%]
Pressure (altimeter): 29.85 inches Hg (1011.0 mb)
Winds: from the SW (220 degrees) at 5 MPH (4 knots; 2.1 m/s)
Visibility: 4 miles ( 6 km)
Ceiling: 7000 feet AGL
Clouds: few clouds at 1200 feet AGL
scattered clouds at 3000 feet AGL
broken clouds at 7000 feet AGL
Weather: no significant weather observed at this time

METAR text: LTCI 142150Z 02004KT 360V080 6000 2900NE BR FEW012 SCT030 BKN070 M05/M06 Q1012 TEMPO 3500 BR
Conditions at: LTCI (VAN , TR) observed 2150 UTC 14 February 2019
Temperature: -5.0°C (23°F)
Dewpoint: -6.0°C (21°F) [RH = 93%]
Pressure (altimeter): 29.88 inches Hg (1012.0 mb)
Winds: from the NNE (20 degrees) at 5 MPH (4 knots; 2.1 m/s)
Visibility: 4 miles ( 6 km)
Ceiling: 7000 feet AGL
Clouds: few clouds at 1200 feet AGL
scattered clouds at 3000 feet AGL
broken clouds at 7000 feet AGL
Weather: BR  (mist)

METAR text: LTCI 142050Z 14003KT 6000 2800NE BR FEW012 SCT030 BKN070 M05/M05 Q1013 TEMPO 3100 BR
Conditions at: LTCI (VAN , TR) observed 2050 UTC 14 February 2019
Temperature: -5.0°C (23°F)
Dewpoint: -5.0°C (23°F) [RH = 100%]
Pressure (altimeter): 29.91 inches Hg (1013.0 mb)
Winds: from the SE (140 degrees) at 3 MPH (3 knots; 1.5 m/s)
Visibility: 4 miles ( 6 km)
Ceiling: 7000 feet AGL
Clouds: few clouds at 1200 feet AGL
scattered clouds at 3000 feet AGL
broken clouds at 7000 feet AGL
Weather: BR  (mist)

METAR text: LTCI 141950Z VRB02KT 3400 BR SCT012 SCT025 OVC070 M03/M04 Q1013 RESN BECMG TL2050 6000
Conditions at: LTCI (VAN , TR) observed 1950 UTC 14 February 2019
Temperature: -3.0°C (27°F)
Dewpoint: -4.0°C (25°F) [RH = 93%]
Pressure (altimeter): 29.91 inches Hg (1013.0 mb)
Winds: variable direction winds at 2 MPH (2 knots; 1.0 m/s)
Visibility: 2.11 miles (3.40 km)
Ceiling: 7000 feet AGL
Clouds: scattered clouds at 1200 feet AGL
scattered clouds at 2500 feet AGL
overcast cloud deck at 7000 feet AGL
Weather: BR  (mist)

METAR text: LTCI 141928Z 14002KT 4200 BR SCT010 SCT025 OVC070 M02/M03 Q1013 RESN BECMG TL2025 6000 RMK RWY21 00000KT
Conditions at: LTCI (VAN , TR) observed 1928 UTC 14 February 2019
Temperature: -2.0°C (28°F)
Dewpoint: -3.0°C (27°F) [RH = 93%]
Pressure (altimeter): 29.91 inches Hg (1013.0 mb)
Winds: from the SE (140 degrees) at 2 MPH (2 knots; 1.0 m/s)
Visibility: 2.61 miles (4.20 km)
Ceiling: 7000 feet AGL
Clouds: scattered clouds at 1000 feet AGL
scattered clouds at 2500 feet AGL
overcast cloud deck at 7000 feet AGL
Weather: BR  (mist)

METAR text: LTCI 141850Z VRB02KT 3600 -SN BR SCT010 BKN025 OVC070 M02/M03 Q1014 BECMG TL1950 6000
Conditions at: LTCI (VAN , TR) observed 1850 UTC 14 February 2019
Temperature: -2.0°C (28°F)
Dewpoint: -3.0°C (27°F) [RH = 93%]
Pressure (altimeter): 29.94 inches Hg (1014.0 mb)
Winds: variable direction winds at 2 MPH (2 knots; 1.0 m/s)
Visibility: 2.24 miles (3.60 km)
Ceiling: 2500 feet AGL
Clouds: scattered clouds at 1000 feet AGL
broken clouds at 2500 feet AGL
overcast cloud deck at 7000 feet AGL
Weather: -SN BR  (light snow, mist)

METAR text: LTCI 141750Z 01003KT 340V080 3400 -SN BR BKN009 OVC025 M02/M03 Q1013 RESN BECMG TL1850 6000
Conditions at: LTCI (VAN , TR) observed 1750 UTC 14 February 2019
Temperature: -2.0°C (28°F)
Dewpoint: -3.0°C (27°F) [RH = 93%]
Pressure (altimeter): 29.91 inches Hg (1013.0 mb)
Winds: from the N (10 degrees) at 3 MPH (3 knots; 1.5 m/s)
Visibility: 2.11 miles (3.40 km)
Ceiling: 900 feet AGL
Clouds: broken clouds at 900 feet AGL
overcast cloud deck at 2500 feet AGL
Weather: -SN BR  (light snow, mist)

METAR text: LTCI 141720Z VRB02KT 3600 -SN BR BKN008 OVC025 M02/M03 Q1014 RESN BECMG TL1820 6000 RMK RWY21 00000KT
Conditions at: LTCI (VAN , TR) observed 1720 UTC 14 February 2019
Temperature: -2.0°C (28°F)
Dewpoint: -3.0°C (27°F) [RH = 93%]
Pressure (altimeter): 29.94 inches Hg (1014.0 mb)
Winds: variable direction winds at 2 MPH (2 knots; 1.0 m/s)
Visibility: 2.24 miles (3.60 km)
Ceiling: 800 feet AGL
Clouds: broken clouds at 800 feet AGL
overcast cloud deck at 2500 feet AGL
Weather: -SN BR  (light snow, mist)

METAR text: LTCI 141650Z 14004KT 100V190 1700 SN BR BKN008 OVC020 M02/M03 Q1014 BECMG TL 1550 6000 NSW
Conditions at: LTCI (VAN , TR) observed 1650 UTC 14 February 2019
Temperature: -2.0°C (28°F)
Dewpoint: -3.0°C (27°F) [RH = 93%]
Pressure (altimeter): 29.94 inches Hg (1014.0 mb)
Winds: from the SE (140 degrees) at 5 MPH (4 knots; 2.1 m/s)
Visibility: 1.06 miles (1.71 km)
Ceiling: 800 feet AGL
Clouds: broken clouds at 800 feet AGL
overcast cloud deck at 2000 feet AGL
Weather: SN BR  (moderate snow, mist)

METAR text: LTCI 141637Z 15003KT 3100 -SN BR SCT013 BKN025 OVC070 M02/M03 Q1015 BECMG TL1737 6000 RMK RWY21 16002KT
Conditions at: LTCI (VAN , TR) observed 1637 UTC 14 February 2019
Temperature: -2.0°C (28°F)
Dewpoint: -3.0°C (27°F) [RH = 93%]
Pressure (altimeter): 29.97 inches Hg (1015.0 mb)
Winds: from the SSE (150 degrees) at 3 MPH (3 knots; 1.5 m/s)
Visibility: 1.93 miles (3.11 km)
Ceiling: 2500 feet AGL
Clouds: scattered clouds at 1300 feet AGL
broken clouds at 2500 feet AGL
overcast cloud deck at 7000 feet AGL
Weather: -SN BR  (light snow, mist)

METAR text: LTCI 141550Z 24006KT 9999 SCT030 BKN070 M01/M04 Q1015 RESN TEMPO 3100 BR
Conditions at: LTCI (VAN , TR) observed 1550 UTC 14 February 2019
Temperature: -1.0°C (30°F)
Dewpoint: -4.0°C (25°F) [RH = 80%]
Pressure (altimeter): 29.97 inches Hg (1015.0 mb)
Winds: from the WSW (240 degrees) at 7 MPH (6 knots; 3.1 m/s)
Visibility: 6 or more miles (10+ km)
Ceiling: 7000 feet AGL
Clouds: scattered clouds at 3000 feet AGL
broken clouds at 7000 feet AGL
Weather: no significant weather observed at this time

METAR text: LTCI 141519Z 28004KT 250V320 8000 SCT030 BKN070 M01/M03 Q1014 RESN TEMPO 3100 BR RMK RWY21 28004KT 240V320
Conditions at: LTCI (VAN , TR) observed 1519 UTC 14 February 2019
Temperature: -1.0°C (30°F)
Dewpoint: -3.0°C (27°F) [RH = 86%]
Pressure (altimeter): 29.94 inches Hg (1014.0 mb)
Winds: from the W (280 degrees) at 5 MPH (4 knots; 2.1 m/s)
Visibility: 5 miles ( 8 km)
Ceiling: 7000 feet AGL
Clouds: scattered clouds at 3000 feet AGL
broken clouds at 7000 feet AGL
Weather: no significant weather observed at this time

METAR text: LTCI 141450Z 29006KT 4000 -SN BR FEW013 SCT025 BKN060 M01/M04 Q1014 BECMG TL1550 8000
Conditions at: LTCI (VAN , TR) observed 1450 UTC 14 February 2019
Temperature: -1.0°C (30°F)
Dewpoint: -4.0°C (25°F) [RH = 80%]
Pressure (altimeter): 29.94 inches Hg (1014.0 mb)
Winds: from the WNW (290 degrees) at 7 MPH (6 knots; 3.1 m/s)
Visibility: 2.49 miles (4.01 km)
Ceiling: 6000 feet AGL
Clouds: few clouds at 1300 feet AGL
scattered clouds at 2500 feet AGL
broken clouds at 6000 feet AGL
Weather: -SN BR  (light snow, mist)

METAR text: LTCI 141434Z 32004KT 3100 -SN BR SCT010 BKN025 M01/M04 Q1014 BECMG TL1530 8000 RMK RWY21 30004KT
Conditions at: LTCI (VAN , TR) observed 1434 UTC 14 February 2019
Temperature: -1.0°C (30°F)
Dewpoint: -4.0°C (25°F) [RH = 80%]
Pressure (altimeter): 29.94 inches Hg (1014.0 mb)
Winds: from the NW (320 degrees) at 5 MPH (4 knots; 2.1 m/s)
Visibility: 1.93 miles (3.11 km)
Ceiling: 2500 feet AGL
Clouds: scattered clouds at 1000 feet AGL
broken clouds at 2500 feet AGL
Weather: -SN BR  (light snow, mist)

METAR text: LTCI 141350Z 00000KT 9999 SCT030 BKN060 M01/M05 Q1015 TEMPO FM1500 3100 BR
Conditions at: LTCI (VAN , TR) observed 1350 UTC 14 February 2019
Temperature: -1.0°C (30°F)
Dewpoint: -5.0°C (23°F) [RH = 74%]
Pressure (altimeter): 29.97 inches Hg (1015.0 mb)
Winds: calm
Visibility: 6 or more miles (10+ km)
Ceiling: 6000 feet AGL
Clouds: scattered clouds at 3000 feet AGL
broken clouds at 6000 feet AGL
Weather: no significant weather observed at this time

METAR text: LTCI 141250Z 23004KT 170V280 9999 SCT030 BKN070 M01/M05 Q1016 NOSIG
Conditions at: LTCI (VAN , TR) observed 1250 UTC 14 February 2019
Temperature: -1.0°C (30°F)
Dewpoint: -5.0°C (23°F) [RH = 74%]
Pressure (altimeter): 30.00 inches Hg (1016.0 mb)
Winds: from the SW (230 degrees) at 5 MPH (4 knots; 2.1 m/s)
Visibility: 6 or more miles (10+ km)
Ceiling: 7000 feet AGL
Clouds: scattered clouds at 3000 feet AGL
broken clouds at 7000 feet AGL
Weather: no significant weather observed at this time

METAR text: LTCI 141150Z 28005KT 240V310 9999 SCT030 BKN070 M01/M06 Q1016 NOSIG
Conditions at: LTCI (VAN , TR) observed 1150 UTC 14 February 2019
Temperature: -1.0°C (30°F)
Dewpoint: -6.0°C (21°F) [RH = 69%]
Pressure (altimeter): 30.00 inches Hg (1016.0 mb)
Winds: from the W (280 degrees) at 6 MPH (5 knots; 2.6 m/s)
Visibility: 6 or more miles (10+ km)
Ceiling: 7000 feet AGL
Clouds: scattered clouds at 3000 feet AGL
broken clouds at 7000 feet AGL
Weather: no significant weather observed at this time

Forecast for: LTCI (VAN , TR)
Text: TAF LTCI 152240Z 1600/1609 07008KT 7000 SCT035 BKN080
Forecast period: 0000 to 0900 UTC 16 February 2019
Forecast type: FROM: standard forecast or significant change
Winds: from the ENE (70 degrees) at 9 MPH (8 knots; 4.1 m/s)
Visibility: 4 miles (7 km)
Ceiling: 8000 feet AGL
Clouds: scattered clouds at 3500 feet AGL
broken clouds at 8000 feet AGL
Weather: no significant weather forecast for this period